Main page
METAR-TAF:

METAR-TAF

Airports :

Portorož Airport

Portorož, Slovenia

latitude: 45-31N, longitude: 013-34E, elevation: 95 m

Current weather observation

The report was made 34 minutes ago, at 13:00 UTC
Wind 5 kt from the East/Northeast, varying between North/Northeast and East
Temperature 16°C
Humidity 45%
Pressure 1024 hPa
Visibility 10 km or more
no clouds below 1500 m and no cumulonimbus

METAR: LJPZ 151300Z 06005KT 030V100 CAVOK 16/04 Q1024

Time: 14:34 (13:34 UTC)

Forecast

The report was made 2 hours and 34 minutes ago, at 11:00 UTC
Forecast valid from 15 at 12 UTC to 15 at 21 UTC
Wind 5 kt from the North/Northwest
Visibility 10 km or more
no clouds below 1500 m and no cumulonimbus
Temporary
from 15 at 12 UTC to 15 at 16 UTC
Wind 5 kt from the West/Southwest
Becoming
from 15 at 16 UTC to 15 at 18 UTC
Wind 5 kt from the East/Southeast

TAF: LJPZ 151100Z 1512/1521 33005KT CAVOK TEMPO 1512/1516 25005KT BECMG 1516/1518 11005KT

Weather observations and forecasts of more than 4000 airports (METAR and TAF reports).

The available stations are represented by yellow and red dots on the map.

Hover mouse over dot to see the name of the station.

Then click to see weather observations and forecasts.

To change the map : click on the green buttons with a black cross to zoom in, on the green button with a dash to zoom out, or on the green arrows for adjacent maps.


METAR-TAF: